PDT,Max TemperatureF,Mean TemperatureF,Min TemperatureF,Max Dew PointF,MeanDew PointF,Min DewpointF,Max Humidity, Mean Humidity, Min Humidity, Max Sea Level PressureIn, Mean Sea Level PressureIn, Min Sea Level PressureIn, Max VisibilityMiles, Mean VisibilityMiles, Min VisibilityMiles, Max Wind SpeedMPH, Mean Wind SpeedMPH, Max Gust SpeedMPH,PrecipitationIn, CloudCover, Events, WindDirDegrees
2012-10-1,89,68,48,45,37,25,66,38,10,30.23,30.18,30.12,10,9,6,16,4,21,0.00,0,,134
2012-10-2,89,70,50,43,37,27,62,36,10,30.14,30.10,30.04,10,9,5,18,4,22,0.00,0,,311
2012-10-3,86,70,53,43,35,27,58,31,12,30.14,30.09,30.05,10,10,7,16,5,22,0.00,0,,306
2012-10-4,77,66,55,37,34,32,44,31,21,30.21,30.17,30.13,10,10,9,25,11,33,0.00,0,,309
2012-10-5,68,62,53,46,42,39,72,52,35,30.24,30.19,30.14,10,9,5,22,13,29,0.00,0,,302
2012-10-6,68,59,50,48,46,43,87,66,40,30.15,30.09,30.04,10,8,5,21,10,26,0.00,0,,313
2012-10-7,71,58,46,50,46,41,100,69,41,30.08,30.05,30.01,10,8,5,16,8,21,0.00,0,,302
2012-10-8,66,56,46,46,44,37,93,68,45,30.09,30.07,30.04,10,8,6,18,7,23,0.00,0,,301
2012-10-9,64,52,39,46,44,34,93,70,49,30.09,30.05,30.01,10,8,5,17,8,21,0.00,3,,302
2012-10-10,66,50,33,41,33,14,87,58,13,30.03,29.99,29.94,10,9,3,15,6,21,0.00,0,,265
2012-10-11,59,48,37,43,40,36,93,77,48,29.99,29.95,29.92,10,10,5,17,7,23,0.00,5,Thunderstorm,295
2012-10-12,50,47,44,46,44,41,100,91,76,30.24,30.11,30.00,10,6,0,17,10,23,0.09,8,Fog-Rain,308
2012-10-13,64,52,41,48,45,41,100,83,52,30.32,30.26,30.23,8,4,2,17,8,21,0.00,4,,306
2012-10-14,77,57,37,48,40,32,100,65,19,30.30,30.24,30.19,10,6,1,20,5,28,0.00,1,,117
2012-10-15,75,57,39,48,39,32,87,59,24,30.20,30.14,30.08,10,8,4,18,5,21,0.00,0,,308
2012-10-16,73,56,39,48,44,36,87,61,36,30.11,30.05,29.99,10,6,4,17,6,22,0.00,0,,307
2012-10-17,80,61,42,46,36,30,93,45,17,30.11,30.05,30.02,10,8,4,21,6,28,0.00,0,,122
2012-10-18,80,66,53,41,28,21,48,26,11,30.19,30.15,30.12,10,9,7,20,11,25,0.00,0,,123
2012-10-19,73,62,50,50,47,36,88,60,41,30.17,30.11,30.04,10,8,5,16,6,21,0.00,0,,297
2012-10-20,69,60,50,50,47,41,94,66,37,30.03,29.94,29.88,10,9,5,23,10,30,0.00,0,,300
2012-10-21,62,54,46,50,43,32,94,68,45,29.96,29.92,29.89,10,9,5,20,14,25,0.00,3,,300
2012-10-22,62,52,41,46,35,25,100,57,26,29.99,29.94,29.90,10,9,0,20,10,26,0.00,4,Fog-Rain,304
2012-10-23,51,44,37,43,35,32,100,72,47,30.02,29.99,29.96,10,10,3,24,16,30,0.00,2,,306
2012-10-24,50,44,39,37,33,27,87,67,49,30.19,30.09,29.99,10,10,8,25,15,36,0.00,4,,297
2012-10-25,57,47,37,36,33,32,81,62,38,30.25,30.20,30.16,10,10,8,21,11,25,0.00,1,,303
2012-10-26,62,47,32,32,22,9,93,41,19,30.26,30.21,30.16,10,10,8,23,9,31,0.00,0,,119
2012-10-27,73,55,37,37,23,9,62,32,14,30.16,30.11,30.06,10,10,8,14,9,21,0.00,0,,117
2012-10-28,75,58,41,32,23,18,49,30,11,30.18,30.12,30.08,10,10,8,16,8,22,0.00,0,,118
2012-10-29,77,56,35,32,22,14,56,34,9,30.22,30.19,30.16,10,10,8,16,4,22,0.00,0,,18
2012-10-30,77,56,35,28,20,14,52,30,9,30.20,30.15,30.11,10,10,7,17,4,22,0.00,0,,330
2012-10-31,73,54,35,32,19,9,46,31,8,30.14,30.09,30.06,10,10,6,18,4,21,0.00,0,,316